Terminal Aerodrome Forecast
Issued by NWS Lubbock, TX

Home | Current Version | Previous Version | Text Only | Print | Product List | Glossary On
Versions: 1 2 3 4 5 6 7 8 9 10 11 12 13 14
006
FTUS44 KLUB 241120
TAFLBB
TAF
KLBB 241120Z 2412/2512 25008KT P6SM SCT250
     FM241700 24017KT P6SM SCT250
     FM242300 25011KT P6SM SCT250
     FM250900 36016G26KT P6SM FEW250=

USA.gov is the U.S. government's official web portal to all federal, state and local government web resources and services.